sensor_id;sensor_type;location;lat;lon;timestamp;P1;durP1;ratioP1;P2;durP2;ratioP2
25057;SDS011;13057;50.978;11.034;2023-04-30T00:00:19;18.30;;;13.30;;
25057;SDS011;13057;50.978;11.034;2023-04-30T00:02:45;21.73;;;12.98;;
25057;SDS011;13057;50.978;11.034;2023-04-30T00:05:11;17.92;;;13.13;;
25057;SDS011;13057;50.978;11.034;2023-04-30T00:07:37;19.90;;;13.80;;
25057;SDS011;13057;50.978;11.034;2023-04-30T00:23:42;20.75;;;13.35;;
25057;SDS011;13057;50.978;11.034;2023-04-30T00:26:08;21.00;;;14.38;;
25057;SDS011;13057;50.978;11.034;2023-04-30T00:28:34;21.00;;;14.15;;
25057;SDS011;13057;50.978;11.034;2023-04-30T00:30:59;19.10;;;12.68;;
25057;SDS011;13057;50.978;11.034;2023-04-30T00:33:25;20.20;;;13.32;;
25057;SDS011;13057;50.978;11.034;2023-04-30T00:35:52;19.33;;;13.27;;
25057;SDS011;13057;50.978;11.034;2023-04-30T00:38:17;18.45;;;13.25;;
25057;SDS011;13057;50.978;11.034;2023-04-30T00:40:43;18.02;;;13.07;;
25057;SDS011;13057;50.978;11.034;2023-04-30T00:43:10;20.70;;;13.10;;
25057;SDS011;13057;50.978;11.034;2023-04-30T00:45:36;18.95;;;12.88;;
25057;SDS011;13057;50.978;11.034;2023-04-30T00:48:02;21.42;;;13.25;;
25057;SDS011;13057;50.978;11.034;2023-04-30T00:50:28;18.48;;;14.07;;
25057;SDS011;13057;50.978;11.034;2023-04-30T00:52:54;16.27;;;12.10;;
25057;SDS011;13057;50.978;11.034;2023-04-30T00:55:20;19.10;;;13.38;;
25057;SDS011;13057;50.978;11.034;2023-04-30T00:57:46;18.55;;;13.07;;
25057;SDS011;13057;50.978;11.034;2023-04-30T01:00:12;22.70;;;14.55;;
25057;SDS011;13057;50.978;11.034;2023-04-30T01:02:39;17.33;;;13.05;;
25057;SDS011;13057;50.978;11.034;2023-04-30T01:05:06;17.40;;;12.38;;
25057;SDS011;13057;50.978;11.034;2023-04-30T01:07:33;18.73;;;13.30;;
25057;SDS011;13057;50.978;11.034;2023-04-30T01:10:00;19.60;;;11.73;;
25057;SDS011;13057;50.978;11.034;2023-04-30T01:12:36;19.88;;;12.88;;
25057;SDS011;13057;50.978;11.034;2023-04-30T01:15:24;18.38;;;13.05;;
25057;SDS011;13057;50.978;11.034;2023-04-30T01:18:02;18.10;;;13.30;;
25057;SDS011;13057;50.978;11.034;2023-04-30T01:20:37;20.77;;;13.07;;
25057;SDS011;13057;50.978;11.034;2023-04-30T01:28:41;19.48;;;13.90;;
25057;SDS011;13057;50.978;11.034;2023-04-30T01:31:12;18.67;;;13.10;;
25057;SDS011;13057;50.978;11.034;2023-04-30T01:33:40;22.10;;;14.35;;
25057;SDS011;13057;50.978;11.034;2023-04-30T01:36:12;20.65;;;13.65;;
25057;SDS011;13057;50.978;11.034;2023-04-30T01:39:05;26.17;;;13.93;;
25057;SDS011;13057;50.978;11.034;2023-04-30T01:47:47;20.05;;;13.77;;
25057;SDS011;13057;50.978;11.034;2023-04-30T01:50:28;19.17;;;13.45;;
25057;SDS011;13057;50.978;11.034;2023-04-30T01:53:00;18.67;;;13.60;;
25057;SDS011;13057;50.978;11.034;2023-04-30T01:55:33;19.83;;;13.80;;
25057;SDS011;13057;50.978;11.034;2023-04-30T01:58:06;19.45;;;13.82;;
25057;SDS011;13057;50.978;11.034;2023-04-30T02:00:35;19.58;;;13.40;;
25057;SDS011;13057;50.978;11.034;2023-04-30T02:03:00;20.23;;;13.05;;
25057;SDS011;13057;50.978;11.034;2023-04-30T02:05:27;22.15;;;13.73;;
25057;SDS011;13057;50.978;11.034;2023-04-30T02:07:53;29.25;;;18.00;;
25057;SDS011;13057;50.978;11.034;2023-04-30T02:10:21;26.70;;;17.00;;
25057;SDS011;13057;50.978;11.034;2023-04-30T02:12:48;24.88;;;16.27;;
25057;SDS011;13057;50.978;11.034;2023-04-30T02:15:14;20.50;;;14.13;;
25057;SDS011;13057;50.978;11.034;2023-04-30T02:17:40;23.20;;;14.55;;
25057;SDS011;13057;50.978;11.034;2023-04-30T02:20:06;23.30;;;14.90;;
25057;SDS011;13057;50.978;11.034;2023-04-30T02:22:33;20.15;;;13.70;;
25057;SDS011;13057;50.978;11.034;2023-04-30T02:25:00;20.70;;;14.10;;
25057;SDS011;13057;50.978;11.034;2023-04-30T02:27:28;18.77;;;13.27;;
25057;SDS011;13057;50.978;11.034;2023-04-30T02:29:55;19.90;;;13.60;;
25057;SDS011;13057;50.978;11.034;2023-04-30T02:32:20;20.65;;;12.88;;
25057;SDS011;13057;50.978;11.034;2023-04-30T02:34:47;19.75;;;13.05;;
25057;SDS011;13057;50.978;11.034;2023-04-30T02:37:13;20.33;;;12.77;;
25057;SDS011;13057;50.978;11.034;2023-04-30T02:39:38;19.45;;;13.30;;
25057;SDS011;13057;50.978;11.034;2023-04-30T02:42:05;18.15;;;12.95;;
25057;SDS011;13057;50.978;11.034;2023-04-30T02:44:32;18.85;;;13.40;;
25057;SDS011;13057;50.978;11.034;2023-04-30T02:46:58;17.27;;;13.18;;
25057;SDS011;13057;50.978;11.034;2023-04-30T02:49:24;18.77;;;13.00;;
25057;SDS011;13057;50.978;11.034;2023-04-30T02:51:51;20.00;;;13.23;;
25057;SDS011;13057;50.978;11.034;2023-04-30T02:54:17;21.88;;;13.38;;
25057;SDS011;13057;50.978;11.034;2023-04-30T02:56:43;22.17;;;13.75;;
25057;SDS011;13057;50.978;11.034;2023-04-30T02:59:10;20.55;;;13.93;;
25057;SDS011;13057;50.978;11.034;2023-04-30T03:01:36;20.63;;;14.00;;
25057;SDS011;13057;50.978;11.034;2023-04-30T03:04:02;19.83;;;13.23;;
25057;SDS011;13057;50.978;11.034;2023-04-30T03:06:29;19.42;;;14.07;;
25057;SDS011;13057;50.978;11.034;2023-04-30T03:08:55;18.77;;;12.73;;
25057;SDS011;13057;50.978;11.034;2023-04-30T03:11:21;21.80;;;13.48;;
25057;SDS011;13057;50.978;11.034;2023-04-30T03:13:48;17.60;;;13.05;;
25057;SDS011;13057;50.978;11.034;2023-04-30T03:16:15;18.88;;;12.85;;
25057;SDS011;13057;50.978;11.034;2023-04-30T03:18:42;19.23;;;13.27;;
25057;SDS011;13057;50.978;11.034;2023-04-30T03:21:09;21.50;;;13.68;;
25057;SDS011;13057;50.978;11.034;2023-04-30T03:23:35;18.65;;;13.13;;
25057;SDS011;13057;50.978;11.034;2023-04-30T03:26:00;18.13;;;12.55;;
25057;SDS011;13057;50.978;11.034;2023-04-30T03:28:26;18.08;;;12.38;;
25057;SDS011;13057;50.978;11.034;2023-04-30T03:30:52;18.25;;;13.27;;
25057;SDS011;13057;50.978;11.034;2023-04-30T03:33:18;16.98;;;12.80;;
25057;SDS011;13057;50.978;11.034;2023-04-30T03:35:44;19.77;;;12.90;;
25057;SDS011;13057;50.978;11.034;2023-04-30T03:38:10;19.25;;;13.07;;
25057;SDS011;13057;50.978;11.034;2023-04-30T03:40:36;46.05;;;30.13;;
25057;SDS011;13057;50.978;11.034;2023-04-30T03:43:02;17.63;;;12.35;;
25057;SDS011;13057;50.978;11.034;2023-04-30T03:45:28;17.17;;;12.30;;
25057;SDS011;13057;50.978;11.034;2023-04-30T03:47:54;17.35;;;12.10;;
25057;SDS011;13057;50.978;11.034;2023-04-30T03:50:20;18.85;;;12.63;;
25057;SDS011;13057;50.978;11.034;2023-04-30T03:52:46;19.25;;;11.95;;
25057;SDS011;13057;50.978;11.034;2023-04-30T03:55:12;18.15;;;12.65;;
25057;SDS011;13057;50.978;11.034;2023-04-30T03:57:38;16.33;;;12.15;;
25057;SDS011;13057;50.978;11.034;2023-04-30T04:00:06;17.30;;;12.82;;
25057;SDS011;13057;50.978;11.034;2023-04-30T04:02:34;19.75;;;13.00;;
25057;SDS011;13057;50.978;11.034;2023-04-30T04:05:01;15.73;;;11.73;;
25057;SDS011;13057;50.978;11.034;2023-04-30T04:07:28;18.02;;;12.70;;
25057;SDS011;13057;50.978;11.034;2023-04-30T04:09:54;17.83;;;12.50;;
25057;SDS011;13057;50.978;11.034;2023-04-30T04:12:20;23.50;;;13.23;;
25057;SDS011;13057;50.978;11.034;2023-04-30T04:14:46;19.33;;;13.32;;
25057;SDS011;13057;50.978;11.034;2023-04-30T04:17:12;16.48;;;11.95;;
25057;SDS011;13057;50.978;11.034;2023-04-30T04:19:38;18.63;;;12.88;;
25057;SDS011;13057;50.978;11.034;2023-04-30T04:22:04;21.50;;;13.45;;
25057;SDS011;13057;50.978;11.034;2023-04-30T04:24:31;21.48;;;12.88;;
25057;SDS011;13057;50.978;11.034;2023-04-30T04:26:57;15.90;;;12.27;;
25057;SDS011;13057;50.978;11.034;2023-04-30T04:29:25;20.50;;;12.90;;
25057;SDS011;13057;50.978;11.034;2023-04-30T04:31:51;16.40;;;12.23;;
25057;SDS011;13057;50.978;11.034;2023-04-30T04:34:19;17.67;;;12.65;;
25057;SDS011;13057;50.978;11.034;2023-04-30T04:36:45;18.05;;;12.70;;
25057;SDS011;13057;50.978;11.034;2023-04-30T04:39:11;18.52;;;12.45;;
25057;SDS011;13057;50.978;11.034;2023-04-30T04:41:37;16.95;;;12.20;;
25057;SDS011;13057;50.978;11.034;2023-04-30T04:44:03;18.80;;;12.25;;
25057;SDS011;13057;50.978;11.034;2023-04-30T04:46:29;16.95;;;12.18;;
25057;SDS011;13057;50.978;11.034;2023-04-30T04:48:56;20.77;;;12.95;;
25057;SDS011;13057;50.978;11.034;2023-04-30T04:51:23;15.52;;;11.48;;
25057;SDS011;13057;50.978;11.034;2023-04-30T04:53:49;17.90;;;12.93;;
25057;SDS011;13057;50.978;11.034;2023-04-30T04:56:15;16.27;;;12.30;;
25057;SDS011;13057;50.978;11.034;2023-04-30T04:58:41;17.13;;;12.40;;
25057;SDS011;13057;50.978;11.034;2023-04-30T05:01:08;17.40;;;12.07;;
25057;SDS011;13057;50.978;11.034;2023-04-30T05:03:34;19.45;;;13.48;;
25057;SDS011;13057;50.978;11.034;2023-04-30T05:06:02;17.75;;;13.20;;
25057;SDS011;13057;50.978;11.034;2023-04-30T05:08:28;17.50;;;11.88;;
25057;SDS011;13057;50.978;11.034;2023-04-30T05:10:55;18.15;;;12.73;;
25057;SDS011;13057;50.978;11.034;2023-04-30T05:13:21;18.25;;;12.05;;
25057;SDS011;13057;50.978;11.034;2023-04-30T05:15:49;19.23;;;12.60;;
25057;SDS011;13057;50.978;11.034;2023-04-30T05:18:16;18.85;;;11.93;;
25057;SDS011;13057;50.978;11.034;2023-04-30T05:20:42;18.92;;;12.65;;
25057;SDS011;13057;50.978;11.034;2023-04-30T05:23:08;18.75;;;11.88;;
25057;SDS011;13057;50.978;11.034;2023-04-30T05:25:34;18.75;;;12.38;;
25057;SDS011;13057;50.978;11.034;2023-04-30T05:28:00;17.17;;;12.10;;
25057;SDS011;13057;50.978;11.034;2023-04-30T05:30:27;21.40;;;11.68;;
25057;SDS011;13057;50.978;11.034;2023-04-30T05:32:54;15.15;;;11.23;;
25057;SDS011;13057;50.978;11.034;2023-04-30T05:35:21;19.20;;;12.07;;
25057;SDS011;13057;50.978;11.034;2023-04-30T05:37:47;19.83;;;12.25;;
25057;SDS011;13057;50.978;11.034;2023-04-30T05:40:13;17.38;;;12.07;;
25057;SDS011;13057;50.978;11.034;2023-04-30T05:42:39;14.10;;;10.43;;
25057;SDS011;13057;50.978;11.034;2023-04-30T05:45:08;15.32;;;9.70;;
25057;SDS011;13057;50.978;11.034;2023-04-30T05:47:36;14.20;;;8.88;;
25057;SDS011;13057;50.978;11.034;2023-04-30T05:50:02;10.60;;;6.88;;
25057;SDS011;13057;50.978;11.034;2023-04-30T05:52:28;14.32;;;8.25;;
25057;SDS011;13057;50.978;11.034;2023-04-30T05:54:54;12.02;;;6.88;;
25057;SDS011;13057;50.978;11.034;2023-04-30T05:57:21;11.15;;;6.68;;
25057;SDS011;13057;50.978;11.034;2023-04-30T05:59:47;11.82;;;6.90;;
25057;SDS011;13057;50.978;11.034;2023-04-30T06:02:13;11.77;;;6.18;;
25057;SDS011;13057;50.978;11.034;2023-04-30T06:04:39;10.30;;;6.05;;
25057;SDS011;13057;50.978;11.034;2023-04-30T06:07:05;10.68;;;6.43;;
25057;SDS011;13057;50.978;11.034;2023-04-30T06:09:31;10.13;;;6.57;;
25057;SDS011;13057;50.978;11.034;2023-04-30T06:11:57;37.50;;;7.10;;
25057;SDS011;13057;50.978;11.034;2023-04-30T06:14:23;11.95;;;5.10;;
25057;SDS011;13057;50.978;11.034;2023-04-30T06:16:49;13.18;;;6.53;;
25057;SDS011;13057;50.978;11.034;2023-04-30T06:19:15;14.10;;;6.18;;
25057;SDS011;13057;50.978;11.034;2023-04-30T06:21:41;9.63;;;5.85;;
25057;SDS011;13057;50.978;11.034;2023-04-30T06:24:08;9.88;;;5.75;;
25057;SDS011;13057;50.978;11.034;2023-04-30T06:26:35;9.15;;;5.38;;
25057;SDS011;13057;50.978;11.034;2023-04-30T06:29:01;8.05;;;4.97;;
25057;SDS011;13057;50.978;11.034;2023-04-30T06:31:27;7.93;;;4.93;;
25057;SDS011;13057;50.978;11.034;2023-04-30T06:33:53;7.07;;;5.00;;
25057;SDS011;13057;50.978;11.034;2023-04-30T06:36:19;9.38;;;5.57;;
25057;SDS011;13057;50.978;11.034;2023-04-30T06:38:45;9.05;;;5.40;;
25057;SDS011;13057;50.978;11.034;2023-04-30T06:41:11;6.70;;;4.85;;
25057;SDS011;13057;50.978;11.034;2023-04-30T06:43:38;8.23;;;5.55;;
25057;SDS011;13057;50.978;11.034;2023-04-30T06:46:04;9.70;;;5.68;;
25057;SDS011;13057;50.978;11.034;2023-04-30T06:48:30;8.88;;;6.00;;
25057;SDS011;13057;50.978;11.034;2023-04-30T06:50:57;8.35;;;5.95;;
25057;SDS011;13057;50.978;11.034;2023-04-30T06:53:23;9.60;;;5.93;;
25057;SDS011;13057;50.978;11.034;2023-04-30T06:55:49;7.95;;;5.30;;
25057;SDS011;13057;50.978;11.034;2023-04-30T06:58:16;9.20;;;5.82;;
25057;SDS011;13057;50.978;11.034;2023-04-30T07:00:42;10.60;;;6.30;;
25057;SDS011;13057;50.978;11.034;2023-04-30T07:03:08;10.27;;;5.28;;
25057;SDS011;13057;50.978;11.034;2023-04-30T07:05:34;9.57;;;5.22;;
25057;SDS011;13057;50.978;11.034;2023-04-30T07:08:01;9.05;;;5.68;;
25057;SDS011;13057;50.978;11.034;2023-04-30T07:10:27;8.82;;;5.07;;
25057;SDS011;13057;50.978;11.034;2023-04-30T07:12:55;9.05;;;5.13;;
25057;SDS011;13057;50.978;11.034;2023-04-30T07:15:21;7.72;;;4.78;;
25057;SDS011;13057;50.978;11.034;2023-04-30T07:17:47;7.03;;;4.80;;
25057;SDS011;13057;50.978;11.034;2023-04-30T07:20:13;8.45;;;4.65;;
25057;SDS011;13057;50.978;11.034;2023-04-30T07:22:40;11.50;;;5.05;;
25057;SDS011;13057;50.978;11.034;2023-04-30T07:25:08;10.52;;;4.80;;
25057;SDS011;13057;50.978;11.034;2023-04-30T07:27:35;8.32;;;4.65;;
25057;SDS011;13057;50.978;11.034;2023-04-30T07:30:01;8.63;;;4.43;;
25057;SDS011;13057;50.978;11.034;2023-04-30T07:32:27;6.55;;;4.60;;
25057;SDS011;13057;50.978;11.034;2023-04-30T07:34:53;7.45;;;5.13;;
25057;SDS011;13057;50.978;11.034;2023-04-30T07:37:19;9.18;;;4.55;;
25057;SDS011;13057;50.978;11.034;2023-04-30T07:39:46;9.65;;;5.18;;
25057;SDS011;13057;50.978;11.034;2023-04-30T07:42:12;11.20;;;5.13;;
25057;SDS011;13057;50.978;11.034;2023-04-30T07:44:38;11.57;;;5.07;;
25057;SDS011;13057;50.978;11.034;2023-04-30T07:47:04;11.50;;;4.80;;
25057;SDS011;13057;50.978;11.034;2023-04-30T07:49:29;6.35;;;4.43;;
25057;SDS011;13057;50.978;11.034;2023-04-30T07:51:55;5.38;;;4.55;;
25057;SDS011;13057;50.978;11.034;2023-04-30T07:54:22;7.60;;;4.55;;
25057;SDS011;13057;50.978;11.034;2023-04-30T07:56:47;10.43;;;5.65;;
25057;SDS011;13057;50.978;11.034;2023-04-30T07:59:13;9.20;;;5.38;;
25057;SDS011;13057;50.978;11.034;2023-04-30T08:01:39;7.60;;;4.88;;
25057;SDS011;13057;50.978;11.034;2023-04-30T08:04:05;8.85;;;5.28;;
25057;SDS011;13057;50.978;11.034;2023-04-30T08:06:31;8.65;;;5.40;;
25057;SDS011;13057;50.978;11.034;2023-04-30T08:08:57;9.80;;;5.43;;
25057;SDS011;13057;50.978;11.034;2023-04-30T08:11:23;9.02;;;5.45;;
25057;SDS011;13057;50.978;11.034;2023-04-30T08:13:49;8.85;;;5.50;;
25057;SDS011;13057;50.978;11.034;2023-04-30T08:16:15;12.88;;;4.88;;
25057;SDS011;13057;50.978;11.034;2023-04-30T08:18:41;8.15;;;5.53;;
25057;SDS011;13057;50.978;11.034;2023-04-30T08:21:10;10.35;;;5.43;;
25057;SDS011;13057;50.978;11.034;2023-04-30T08:23:36;8.05;;;5.07;;
25057;SDS011;13057;50.978;11.034;2023-04-30T08:26:02;8.45;;;5.18;;
25057;SDS011;13057;50.978;11.034;2023-04-30T08:28:28;7.88;;;4.97;;
25057;SDS011;13057;50.978;11.034;2023-04-30T08:30:54;8.23;;;4.90;;
25057;SDS011;13057;50.978;11.034;2023-04-30T08:33:20;9.07;;;4.95;;
25057;SDS011;13057;50.978;11.034;2023-04-30T08:35:48;7.47;;;5.10;;
25057;SDS011;13057;50.978;11.034;2023-04-30T08:38:15;8.45;;;5.72;;
25057;SDS011;13057;50.978;11.034;2023-04-30T08:40:48;9.07;;;5.32;;
25057;SDS011;13057;50.978;11.034;2023-04-30T08:43:21;7.20;;;4.90;;
25057;SDS011;13057;50.978;11.034;2023-04-30T08:45:47;9.57;;;4.93;;
25057;SDS011;13057;50.978;11.034;2023-04-30T08:48:15;10.23;;;4.88;;
25057;SDS011;13057;50.978;11.034;2023-04-30T08:50:42;10.75;;;5.20;;
25057;SDS011;13057;50.978;11.034;2023-04-30T08:53:10;7.35;;;4.90;;
25057;SDS011;13057;50.978;11.034;2023-04-30T08:55:37;9.48;;;4.97;;
25057;SDS011;13057;50.978;11.034;2023-04-30T08:58:09;9.63;;;5.63;;
25057;SDS011;13057;50.978;11.034;2023-04-30T09:00:41;8.02;;;4.57;;
25057;SDS011;13057;50.978;11.034;2023-04-30T09:03:07;8.80;;;5.15;;
25057;SDS011;13057;50.978;11.034;2023-04-30T09:05:35;7.13;;;4.63;;
25057;SDS011;13057;50.978;11.034;2023-04-30T09:08:02;7.57;;;4.30;;
25057;SDS011;13057;50.978;11.034;2023-04-30T09:10:31;7.07;;;4.63;;
25057;SDS011;13057;50.978;11.034;2023-04-30T09:12:59;7.03;;;4.55;;
25057;SDS011;13057;50.978;11.034;2023-04-30T09:15:27;7.60;;;4.63;;
25057;SDS011;13057;50.978;11.034;2023-04-30T09:18:04;6.88;;;4.47;;
25057;SDS011;13057;50.978;11.034;2023-04-30T09:23:25;6.82;;;4.60;;
25057;SDS011;13057;50.978;11.034;2023-04-30T09:25:51;8.23;;;4.38;;
25057;SDS011;13057;50.978;11.034;2023-04-30T09:28:17;6.57;;;4.60;;
25057;SDS011;13057;50.978;11.034;2023-04-30T09:30:48;6.50;;;4.53;;
25057;SDS011;13057;50.978;11.034;2023-04-30T09:33:15;7.25;;;4.43;;
25057;SDS011;13057;50.978;11.034;2023-04-30T09:35:41;8.00;;;4.25;;
25057;SDS011;13057;50.978;11.034;2023-04-30T09:38:07;7.72;;;4.18;;
25057;SDS011;13057;50.978;11.034;2023-04-30T09:40:49;6.88;;;4.03;;
25057;SDS011;13057;50.978;11.034;2023-04-30T09:43:15;5.28;;;3.78;;
25057;SDS011;13057;50.978;11.034;2023-04-30T09:45:41;8.95;;;3.80;;
25057;SDS011;13057;50.978;11.034;2023-04-30T09:48:11;7.45;;;3.88;;
25057;SDS011;13057;50.978;11.034;2023-04-30T09:50:40;6.70;;;3.75;;
25057;SDS011;13057;50.978;11.034;2023-04-30T09:53:06;8.43;;;4.25;;
25057;SDS011;13057;50.978;11.034;2023-04-30T09:55:35;7.40;;;4.22;;
25057;SDS011;13057;50.978;11.034;2023-04-30T09:58:03;7.05;;;3.92;;
25057;SDS011;13057;50.978;11.034;2023-04-30T10:00:31;6.45;;;3.70;;
25057;SDS011;13057;50.978;11.034;2023-04-30T10:02:58;6.97;;;4.78;;
25057;SDS011;13057;50.978;11.034;2023-04-30T10:05:35;7.40;;;4.03;;
25057;SDS011;13057;50.978;11.034;2023-04-30T10:08:06;5.95;;;3.72;;
25057;SDS011;13057;50.978;11.034;2023-04-30T10:10:37;6.00;;;3.13;;
25057;SDS011;13057;50.978;11.034;2023-04-30T10:13:07;5.88;;;2.90;;
25057;SDS011;13057;50.978;11.034;2023-04-30T10:15:41;6.22;;;3.10;;
25057;SDS011;13057;50.978;11.034;2023-04-30T10:18:20;6.57;;;3.30;;
25057;SDS011;13057;50.978;11.034;2023-04-30T10:20:52;8.75;;;3.00;;
25057;SDS011;13057;50.978;11.034;2023-04-30T10:23:20;4.35;;;3.15;;
25057;SDS011;13057;50.978;11.034;2023-04-30T10:25:46;6.78;;;3.58;;
25057;SDS011;13057;50.978;11.034;2023-04-30T10:28:13;5.80;;;3.53;;
25057;SDS011;13057;50.978;11.034;2023-04-30T10:30:40;5.85;;;3.70;;
25057;SDS011;13057;50.978;11.034;2023-04-30T10:33:12;5.03;;;3.17;;
25057;SDS011;13057;50.978;11.034;2023-04-30T10:35:57;7.13;;;3.17;;
25057;SDS011;13057;50.978;11.034;2023-04-30T10:38:28;3.95;;;2.90;;
25057;SDS011;13057;50.978;11.034;2023-04-30T10:40:56;4.15;;;2.88;;
25057;SDS011;13057;50.978;11.034;2023-04-30T10:43:24;6.32;;;2.63;;
25057;SDS011;13057;50.978;11.034;2023-04-30T10:45:50;3.80;;;2.50;;
25057;SDS011;13057;50.978;11.034;2023-04-30T10:48:16;5.25;;;2.60;;
25057;SDS011;13057;50.978;11.034;2023-04-30T10:50:50;5.43;;;3.20;;
25057;SDS011;13057;50.978;11.034;2023-04-30T10:53:18;10.75;;;2.83;;
25057;SDS011;13057;50.978;11.034;2023-04-30T10:55:46;7.28;;;3.58;;
25057;SDS011;13057;50.978;11.034;2023-04-30T10:58:24;12.00;;;3.47;;
25057;SDS011;13057;50.978;11.034;2023-04-30T11:00:58;3.67;;;2.65;;
25057;SDS011;13057;50.978;11.034;2023-04-30T11:03:27;4.55;;;2.47;;
25057;SDS011;13057;50.978;11.034;2023-04-30T11:05:54;11.60;;;6.32;;
25057;SDS011;13057;50.978;11.034;2023-04-30T11:08:30;4.20;;;2.28;;
25057;SDS011;13057;50.978;11.034;2023-04-30T11:10:58;4.00;;;2.40;;
25057;SDS011;13057;50.978;11.034;2023-04-30T11:13:25;6.57;;;2.20;;
25057;SDS011;13057;50.978;11.034;2023-04-30T11:15:52;3.20;;;2.00;;
25057;SDS011;13057;50.978;11.034;2023-04-30T11:18:18;5.25;;;1.95;;
25057;SDS011;13057;50.978;11.034;2023-04-30T11:20:48;3.80;;;1.80;;
25057;SDS011;13057;50.978;11.034;2023-04-30T11:23:16;4.57;;;2.00;;
25057;SDS011;13057;50.978;11.034;2023-04-30T11:25:46;3.05;;;1.73;;
25057;SDS011;13057;50.978;11.034;2023-04-30T11:28:15;5.53;;;2.15;;
25057;SDS011;13057;50.978;11.034;2023-04-30T11:30:50;2.97;;;1.65;;
25057;SDS011;13057;50.978;11.034;2023-04-30T11:33:21;2.10;;;1.40;;
25057;SDS011;13057;50.978;11.034;2023-04-30T11:35:51;3.35;;;1.80;;
25057;SDS011;13057;50.978;11.034;2023-04-30T11:38:19;4.47;;;1.95;;
25057;SDS011;13057;50.978;11.034;2023-04-30T11:40:47;5.80;;;2.20;;
25057;SDS011;13057;50.978;11.034;2023-04-30T11:43:21;3.72;;;1.90;;
25057;SDS011;13057;50.978;11.034;2023-04-30T11:45:59;4.40;;;2.97;;
25057;SDS011;13057;50.978;11.034;2023-04-30T11:48:36;9.70;;;2.30;;
25057;SDS011;13057;50.978;11.034;2023-04-30T11:51:13;2.78;;;1.67;;
25057;SDS011;13057;50.978;11.034;2023-04-30T11:53:48;4.40;;;2.33;;
25057;SDS011;13057;50.978;11.034;2023-04-30T11:56:19;3.88;;;1.73;;
25057;SDS011;13057;50.978;11.034;2023-04-30T11:58:50;3.15;;;2.30;;
25057;SDS011;13057;50.978;11.034;2023-04-30T12:01:16;4.47;;;1.85;;
25057;SDS011;13057;50.978;11.034;2023-04-30T12:03:45;2.67;;;1.65;;
25057;SDS011;13057;50.978;11.034;2023-04-30T12:06:21;4.25;;;1.70;;
25057;SDS011;13057;50.978;11.034;2023-04-30T12:08:50;5.20;;;1.90;;
25057;SDS011;13057;50.978;11.034;2023-04-30T12:11:20;6.03;;;1.90;;
25057;SDS011;13057;50.978;11.034;2023-04-30T12:13:51;4.35;;;1.73;;
25057;SDS011;13057;50.978;11.034;2023-04-30T12:16:18;3.40;;;2.03;;
25057;SDS011;13057;50.978;11.034;2023-04-30T12:18:44;4.30;;;1.70;;
25057;SDS011;13057;50.978;11.034;2023-04-30T12:21:11;6.30;;;1.60;;
25057;SDS011;13057;50.978;11.034;2023-04-30T12:23:38;3.80;;;1.50;;
25057;SDS011;13057;50.978;11.034;2023-04-30T12:26:04;4.85;;;1.70;;
25057;SDS011;13057;50.978;11.034;2023-04-30T12:28:30;3.58;;;1.90;;
25057;SDS011;13057;50.978;11.034;2023-04-30T12:30:56;4.03;;;1.65;;
25057;SDS011;13057;50.978;11.034;2023-04-30T12:33:24;3.83;;;2.17;;
25057;SDS011;13057;50.978;11.034;2023-04-30T12:35:55;3.90;;;2.10;;
25057;SDS011;13057;50.978;11.034;2023-04-30T12:38:23;3.42;;;1.70;;
25057;SDS011;13057;50.978;11.034;2023-04-30T12:40:49;5.90;;;2.03;;
25057;SDS011;13057;50.978;11.034;2023-04-30T12:43:15;4.93;;;1.83;;
25057;SDS011;13057;50.978;11.034;2023-04-30T12:45:43;5.20;;;1.88;;
25057;SDS011;13057;50.978;11.034;2023-04-30T12:48:11;4.57;;;2.30;;
25057;SDS011;13057;50.978;11.034;2023-04-30T12:50:38;2.63;;;1.75;;
25057;SDS011;13057;50.978;11.034;2023-04-30T12:53:04;5.60;;;1.90;;
25057;SDS011;13057;50.978;11.034;2023-04-30T12:55:31;4.85;;;1.98;;
25057;SDS011;13057;50.978;11.034;2023-04-30T12:58:06;4.93;;;1.92;;
25057;SDS011;13057;50.978;11.034;2023-04-30T13:03:14;4.85;;;1.90;;
25057;SDS011;13057;50.978;11.034;2023-04-30T13:05:46;2.40;;;1.67;;
25057;SDS011;13057;50.978;11.034;2023-04-30T13:08:13;4.70;;;1.80;;
25057;SDS011;13057;50.978;11.034;2023-04-30T13:10:40;8.13;;;2.20;;
25057;SDS011;13057;50.978;11.034;2023-04-30T13:13:06;7.47;;;1.95;;
25057;SDS011;13057;50.978;11.034;2023-04-30T13:15:31;3.47;;;1.73;;
25057;SDS011;13057;50.978;11.034;2023-04-30T13:17:57;5.20;;;1.70;;
25057;SDS011;13057;50.978;11.034;2023-04-30T13:20:23;2.42;;;1.70;;
25057;SDS011;13057;50.978;11.034;2023-04-30T13:22:50;5.32;;;1.70;;
25057;SDS011;13057;50.978;11.034;2023-04-30T13:25:16;3.50;;;1.77;;
25057;SDS011;13057;50.978;11.034;2023-04-30T13:27:42;4.15;;;1.60;;
25057;SDS011;13057;50.978;11.034;2023-04-30T13:30:08;3.45;;;1.55;;
25057;SDS011;13057;50.978;11.034;2023-04-30T13:32:35;4.40;;;1.83;;
25057;SDS011;13057;50.978;11.034;2023-04-30T13:35:01;5.00;;;1.80;;
25057;SDS011;13057;50.978;11.034;2023-04-30T13:37:27;4.43;;;1.98;;
25057;SDS011;13057;50.978;11.034;2023-04-30T13:39:55;4.07;;;1.80;;
25057;SDS011;13057;50.978;11.034;2023-04-30T13:42:22;3.17;;;1.88;;
25057;SDS011;13057;50.978;11.034;2023-04-30T13:44:49;5.82;;;1.70;;
25057;SDS011;13057;50.978;11.034;2023-04-30T13:47:16;5.80;;;1.92;;
25057;SDS011;13057;50.978;11.034;2023-04-30T13:49:42;3.17;;;1.40;;
25057;SDS011;13057;50.978;11.034;2023-04-30T13:52:08;4.50;;;1.60;;
25057;SDS011;13057;50.978;11.034;2023-04-30T13:54:34;8.82;;;1.58;;
25057;SDS011;13057;50.978;11.034;2023-04-30T13:57:03;3.47;;;1.52;;
25057;SDS011;13057;50.978;11.034;2023-04-30T13:59:29;4.40;;;1.55;;
25057;SDS011;13057;50.978;11.034;2023-04-30T14:01:56;5.47;;;1.88;;
25057;SDS011;13057;50.978;11.034;2023-04-30T14:04:22;3.65;;;1.65;;
25057;SDS011;13057;50.978;11.034;2023-04-30T14:06:47;2.55;;;1.58;;
25057;SDS011;13057;50.978;11.034;2023-04-30T14:09:14;2.65;;;1.58;;
25057;SDS011;13057;50.978;11.034;2023-04-30T14:11:40;3.78;;;2.08;;
25057;SDS011;13057;50.978;11.034;2023-04-30T14:14:07;6.93;;;2.17;;
25057;SDS011;13057;50.978;11.034;2023-04-30T14:16:33;5.60;;;1.80;;
25057;SDS011;13057;50.978;11.034;2023-04-30T14:18:59;5.00;;;2.00;;
25057;SDS011;13057;50.978;11.034;2023-04-30T14:21:25;4.43;;;1.80;;
25057;SDS011;13057;50.978;11.034;2023-04-30T14:23:52;15.68;;;9.18;;
25057;SDS011;13057;50.978;11.034;2023-04-30T14:26:19;6.53;;;1.67;;
25057;SDS011;13057;50.978;11.034;2023-04-30T14:28:46;3.13;;;1.70;;
25057;SDS011;13057;50.978;11.034;2023-04-30T14:31:12;5.65;;;1.67;;
25057;SDS011;13057;50.978;11.034;2023-04-30T14:33:37;4.40;;;1.80;;
25057;SDS011;13057;50.978;11.034;2023-04-30T14:36:04;5.25;;;1.95;;
25057;SDS011;13057;50.978;11.034;2023-04-30T14:38:31;8.25;;;2.20;;
25057;SDS011;13057;50.978;11.034;2023-04-30T14:40:56;10.52;;;2.00;;
25057;SDS011;13057;50.978;11.034;2023-04-30T14:43:22;7.00;;;2.10;;
25057;SDS011;13057;50.978;11.034;2023-04-30T14:45:48;5.22;;;1.90;;
25057;SDS011;13057;50.978;11.034;2023-04-30T14:48:15;5.38;;;2.00;;
25057;SDS011;13057;50.978;11.034;2023-04-30T14:50:42;3.33;;;1.58;;
25057;SDS011;13057;50.978;11.034;2023-04-30T14:53:08;10.20;;;5.70;;
25057;SDS011;13057;50.978;11.034;2023-04-30T14:55:36;5.05;;;1.75;;